Aérodrome :
LOGIN :

S'inscrire | Disclaimer

   EN    FR    IT 

 










Légende :    VFR   VFR Marginal   IFR   IFR Intensif   IFR Très Intensif
Visi : 
Plafond : 
>= 8 km
>= 3000ft
5 à 8 km
1000 à 3000 ft
1500m à 5 km
500 à 1000 ft
800 à 1500m
200 à 500 ft
< 800m
< 200 ft
Symboles :   Orages  Brouillard  Fortes neiges  Fortes précipitations  Vent > 20 kt
SIGMETs :   Divers  Orages  Givrage  Turbulence  Onde Orograph.  Cendres Volcan.







- Altitude de l'aérodrome : 375 ft
- Code IATA : MST


EHBK - Maastricht Aachen

DERNIER METAR :
  • 171825Z AUTO 27010KT 220V310 6000 -RA SCT004 BKN005 OVC007 01/00 Q1009 TEMPO 2000 SHRASN

METARs EXPIRÉS :
  • 171755Z AUTO 25011G21KT 200V310 7000 -SHSN FEW006 SCT008 BKN009 FEW015CB 02/00 Q1008 REDZSN TEMPO 2000 SHRASN
  • 171725Z AUTO 22010KT 9999 FEW027 BKN034 OVC038 02/00 Q1008 TEMPO 4000 SHRASN BKN008 SCT020CB
  • 171655Z AUTO 22008KT 9999 FEW008 SCT043 01/M00 Q1008 TEMPO 4000 SHRASN BKN008 SCT020CB
  • 171625Z AUTO 25007KT 200V340 9999 FEW007 SCT017 OVC045 01/00 Q1007 TEMPO 4000 SHRASN BKN008 SCT020CB
  • 171555Z AUTO 27009KT 230V310 9999 FEW007 SCT009 BKN010 02/01 Q1007 TEMPO 6000 SHRA SCT020CB

TAF TAF EHBK
Valide du 17 à 18h jusqu'au 19 à 00h UTC


171700Z 1718/1824 27010KT 9999 SCT008 BKN012
TEMPO 1718/1721 6000 SHRA SHRASN BKN008 SCT015CB
BECMG 1720/1723 24005KT FEW030
BECMG 1800/1803 3000 BR
PROB30 1805/1809 0600 FZFG BKN001
BECMG 1808/1811 CAVOK
Pas de NOTAMs connus pour ce terrain.



MET'MAP, la Météo Aéronautique d'un coup d'oeil ! - Copyright ORBIFLY Décembre 2007 - Disclaimer

ORBIFLY MET'MAP TEAM :

Programmation & Développement : Alexandra Zaïnal
Conception & Développement : Baudouin d'Aumeries
Co-Programmation & Développement : Marc-Olivier Méhu
Soutien technique & logistique : Manuel Goepfert

Contact : metmap@orbifly.com




SOURCES & CREDITS :

   NOAA